Time;durP1;ratioP1;P1;durP2;ratioP2;P2;SDS_P1;SDS_P2;PMS_P1;PMS_P2;Temp;Humidity;BMP_temperature;BMP_pressure;BME280_temperature;BME280_humidity;BME280_pressure;Samples;Min_cycle;Max_cycle;Signal;HPM_P1;HPM_P2
2023/01/01 00:02:18;;;;;;;17.40;9.13;;;7.90;99.90;;;;;;4437577;28;657195;-74
2023/01/01 00:05:06;;;;;;;19.77;9.23;;;7.90;99.90;;;;;;4418115;28;656851;-72
2023/01/01 00:07:54;;;;;;;20.70;10.23;;;7.90;99.90;;;;;;4432292;28;656915;-67
2023/01/01 00:10:41;;;;;;;24.10;10.50;;;7.90;99.90;;;;;;4408247;28;657418;-71
2023/01/01 00:13:29;;;;;;;26.50;13.23;;;7.90;99.90;;;;;;4418891;28;657842;-71
2023/01/01 00:16:19;;;;;;;26.57;12.27;;;7.90;99.90;;;;;;4396129;28;657307;-72
2023/01/01 00:19:06;;;;;;;26.17;11.73;;;7.80;99.90;;;;;;4397277;28;658087;-71
2023/01/01 00:21:54;;;;;;;17.77;9.73;;;7.80;99.90;;;;;;4423557;28;658434;-67
2023/01/01 00:24:41;;;;;;;20.13;9.63;;;7.80;99.90;;;;;;4383524;28;656381;-68
2023/01/01 00:27:28;;;;;;;17.80;9.27;;;7.80;99.90;;;;;;4408847;28;658387;-69
2023/01/01 00:30:17;;;;;;;24.23;10.03;;;7.80;99.90;;;;;;4386226;28;656926;-71
2023/01/01 00:33:04;;;;;;;30.10;15.57;;;7.70;99.90;;;;;;4399735;28;657754;-71
2023/01/01 00:35:51;;;;;;;162.53;65.80;;;7.70;99.90;;;;;;4391659;28;657745;-69
2023/01/01 00:38:39;;;;;;;219.77;73.23;;;7.60;99.90;;;;;;4410089;28;659430;-75
2023/01/01 00:41:26;;;;;;;201.77;65.97;;;7.50;99.90;;;;;;4384729;28;658640;-80
2023/01/01 00:44:13;;;;;;;62.17;24.97;;;7.50;99.90;;;;;;4401325;28;658827;-73
2023/01/01 00:47:02;;;;;;;198.00;65.80;;;7.50;99.90;;;;;;4394070;28;657879;-70
2023/01/01 00:49:49;;;;;;;153.93;53.90;;;7.50;99.90;;;;;;4420999;28;658753;-71
2023/01/01 00:52:36;;;;;;;137.87;52.10;;;7.40;99.90;;;;;;4384869;28;658724;-72
2023/01/01 00:55:23;;;;;;;61.07;24.07;;;7.40;99.90;;;;;;4411542;28;658871;-73
2023/01/01 00:58:11;;;;;;;69.47;26.77;;;7.30;99.90;;;;;;4392370;28;657690;-71
2023/01/01 01:00:58;;;;;;;55.20;19.97;;;7.30;99.90;;;;;;4403578;28;658933;-70
2023/01/01 01:03:47;;;;;;;43.97;16.77;;;7.20;99.90;;;;;;4384921;28;657771;-72
2023/01/01 01:06:34;;;;;;;27.73;11.63;;;7.20;99.90;;;;;;4403036;28;657387;-70
2023/01/01 01:09:21;;;;;;;21.83;9.60;;;7.20;99.90;;;;;;4384851;28;657842;-70
2023/01/01 01:12:08;;;;;;;32.27;12.37;;;7.20;99.90;;;;;;4408058;28;657580;-70
2023/01/01 01:14:55;;;;;;;34.60;12.33;;;7.20;99.90;;;;;;4382982;28;657764;-70
2023/01/01 01:17:43;;;;;;;28.00;11.20;;;7.20;99.90;;;;;;4403256;28;658605;-70
2023/01/01 01:20:32;;;;;;;117.05;37.33;;;7.20;99.90;;;;;;4395986;28;657599;-69
2023/01/01 01:23:19;;;;;;;110.53;35.73;;;7.20;99.90;;;;;;4428951;28;658861;-71
2023/01/01 01:26:08;;;;;;;110.03;37.43;;;7.20;99.90;;;;;;4414856;28;658720;-69
2023/01/01 01:28:55;;;;;;;118.07;41.03;;;7.10;99.90;;;;;;4422490;28;658690;-70
2023/01/01 01:31:42;;;;;;;90.37;31.10;;;7.10;99.90;;;;;;4422638;28;658970;-69
2023/01/01 01:34:30;;;;;;;58.77;22.17;;;7.10;99.90;;;;;;4434413;28;657905;-70
2023/01/01 01:37:19;;;;;;;44.20;17.07;;;7.00;99.90;;;;;;4438261;28;657214;-70
2023/01/01 01:40:08;;;;;;;39.67;17.27;;;7.00;99.90;;;;;;4412556;28;657631;-69
2023/01/01 01:42:55;;;;;;;46.40;19.90;;;7.00;99.90;;;;;;4424717;28;657644;-70
2023/01/01 01:45:42;;;;;;;58.80;23.23;;;7.00;99.90;;;;;;4440197;28;657827;-70
2023/01/01 01:48:30;;;;;;;64.87;26.77;;;7.10;99.90;;;;;;4432694;28;657245;-70
2023/01/01 01:51:20;;;;;;;45.87;19.97;;;7.10;99.90;;;;;;4438642;28;658620;-69
2023/01/01 01:54:10;;;;;;;49.53;21.17;;;7.20;99.90;;;;;;4416027;28;658080;-69
2023/01/01 01:56:58;;;;;;;41.67;18.90;;;7.20;99.90;;;;;;4411269;28;658658;-71
2023/01/01 01:59:48;;;;;;;32.97;14.83;;;7.40;99.90;;;;;;4416981;28;658120;-70
2023/01/01 02:02:37;;;;;;;27.97;13.37;;;7.30;99.90;;;;;;4422738;28;658545;-74
2023/01/01 02:05:24;;;;;;;37.50;17.40;;;7.40;99.90;;;;;;4438611;28;657332;-75
2023/01/01 02:08:13;;;;;;;31.17;16.27;;;7.40;99.90;;;;;;4410551;28;657187;-76
2023/01/01 02:11:02;;;;;;;32.78;16.90;;;7.40;99.90;;;;;;4416368;28;657355;-74
2023/01/01 02:13:49;;;;;;;40.57;19.23;;;7.40;99.90;;;;;;4436293;28;657871;-74
2023/01/01 02:16:37;;;;;;;37.00;16.73;;;7.30;99.90;;;;;;4408208;28;657954;-75
2023/01/01 02:19:33;;;;;;;37.37;18.23;;;7.30;99.90;;;;;;4417784;28;657158;-75
2023/01/01 02:22:24;;;;;;;37.23;17.43;;;7.40;99.90;;;;;;4414704;28;657533;-74
2023/01/01 02:25:16;;;;;;;34.97;17.10;;;7.30;99.90;;;;;;4413339;28;658007;-74
2023/01/01 02:28:06;;;;;;;35.37;18.27;;;7.40;99.90;;;;;;4411662;28;658560;-75
2023/01/01 02:30:54;;;;;;;41.37;17.23;;;7.40;99.90;;;;;;4415000;28;657894;-75
2023/01/01 02:33:42;;;;;;;31.97;15.37;;;7.50;99.90;;;;;;4407379;28;658779;-75
2023/01/01 02:36:30;;;;;;;28.85;14.07;;;7.50;99.90;;;;;;4438157;28;657801;-76
2023/01/01 02:39:17;;;;;;;26.73;14.00;;;7.50;99.90;;;;;;4410684;28;657799;-75
2023/01/01 02:42:05;;;;;;;38.33;18.73;;;7.50;99.90;;;;;;4433600;28;657366;-76
2023/01/01 02:44:53;;;;;;;32.33;15.63;;;7.50;99.90;;;;;;4415123;28;658319;-75
2023/01/01 02:47:42;;;;;;;31.47;14.87;;;7.50;99.90;;;;;;4429480;28;657614;-75
2023/01/01 02:50:29;;;;;;;31.60;15.13;;;7.50;99.90;;;;;;4430308;28;658065;-75
2023/01/01 02:53:19;;;;;;;29.50;14.87;;;7.50;99.90;;;;;;4421437;28;657439;-75
2023/01/01 02:56:11;;;;;;;32.47;15.87;;;7.50;99.90;;;;;;4420839;28;657736;-75
2023/01/01 03:02:12;;;;;;;39.23;18.20;;;7.50;99.90;;;;;;4413224;28;658263;-76
2023/01/01 03:05:06;;;;;;;34.23;15.30;;;7.50;99.90;;;;;;4412283;28;657316;-75
2023/01/01 03:08:00;;;;;;;28.47;13.83;;;7.50;99.90;;;;;;4416969;28;657389;-75
2023/01/01 03:10:50;;;;;;;26.67;12.67;;;7.50;99.90;;;;;;4412180;28;657881;-75
2023/01/01 03:13:43;;;;;;;26.57;12.10;;;7.50;99.90;;;;;;4414010;28;658318;-76
2023/01/01 03:16:32;;;;;;;25.53;11.33;;;7.60;99.90;;;;;;4398999;28;657710;-75
2023/01/01 03:19:21;;;;;;;21.07;10.83;;;7.70;99.90;;;;;;4434771;28;657753;-75
2023/01/01 03:22:11;;;;;;;18.40;8.23;;;7.80;99.90;;;;;;4437684;28;658650;-75
2023/01/01 03:24:59;;;;;;;17.53;8.50;;;8.00;99.90;;;;;;4415962;28;656914;-76
2023/01/01 03:27:47;;;;;;;20.90;9.60;;;7.90;99.90;;;;;;4417170;28;656660;-76
2023/01/01 03:30:35;;;;;;;18.37;8.57;;;8.20;99.90;;;;;;4440629;28;656055;-75
2023/01/01 03:33:24;;;;;;;14.23;7.40;;;8.30;99.90;;;;;;4422174;28;656858;-76
2023/01/01 03:36:12;;;;;;;17.40;7.97;;;8.30;99.90;;;;;;4420005;28;656443;-76
2023/01/01 03:39:04;;;;;;;13.60;6.60;;;8.30;99.90;;;;;;4432808;28;656843;-75
2023/01/01 03:41:53;;;;;;;13.13;6.82;;;8.20;99.90;;;;;;4418442;28;656612;-76
2023/01/01 03:44:44;;;;;;;15.43;7.40;;;8.20;99.90;;;;;;4417273;28;656011;-75
2023/01/01 03:47:31;;;;;;;14.90;6.73;;;8.10;99.90;;;;;;4420419;28;656526;-75
2023/01/01 03:50:18;;;;;;;14.77;7.53;;;8.20;99.90;;;;;;4434919;28;657799;-76
2023/01/01 03:53:08;;;;;;;12.93;6.80;;;8.20;99.90;;;;;;4416793;28;656392;-75
2023/01/01 03:56:01;;;;;;;13.50;6.70;;;8.30;99.90;;;;;;4424914;28;657106;-76
2023/01/01 03:58:51;;;;;;;12.90;7.10;;;8.40;99.90;;;;;;4420081;28;657357;-76
2023/01/01 04:01:41;;;;;;;14.53;7.03;;;8.40;99.90;;;;;;4419228;28;656367;-76
2023/01/01 04:04:28;;;;;;;12.10;6.43;;;8.50;99.90;;;;;;4411809;28;657336;-76
2023/01/01 04:07:15;;;;;;;15.93;7.30;;;8.60;99.90;;;;;;4418725;28;656708;-74
2023/01/01 04:10:15;;;;;;;13.30;7.10;;;8.60;99.90;;;;;;4436651;28;657395;-75
2023/01/01 04:13:05;;;;;;;15.63;6.07;;;8.60;99.90;;;;;;4418867;28;657422;-76
2023/01/01 04:15:52;;;;;;;16.30;6.97;;;8.60;99.90;;;;;;4415599;28;657556;-75
2023/01/01 04:18:39;;;;;;;20.87;8.53;;;8.70;99.90;;;;;;4440558;28;656383;-76
2023/01/01 04:21:27;;;;;;;21.57;9.10;;;8.60;99.90;;;;;;4407104;28;656945;-76
2023/01/01 04:24:14;;;;;;;14.37;7.40;;;8.70;99.90;;;;;;4425874;28;656373;-76
2023/01/01 04:27:01;;;;;;;15.37;6.90;;;8.80;99.90;;;;;;4399065;28;656444;-75
2023/01/01 04:29:50;;;;;;;10.00;5.67;;;8.90;99.90;;;;;;4423171;28;657508;-76
2023/01/01 04:32:38;;;;;;;23.17;9.97;;;8.90;99.90;;;;;;4401810;28;656843;-75
2023/01/01 04:35:25;;;;;;;13.70;7.33;;;9.00;99.90;;;;;;4417108;28;656720;-75
2023/01/01 04:38:13;;;;;;;14.27;6.23;;;9.00;99.90;;;;;;4427277;28;656414;-76
2023/01/01 04:41:01;;;;;;;11.23;6.10;;;8.80;99.90;;;;;;4402049;28;656514;-75
2023/01/01 04:43:49;;;;;;;11.73;5.40;;;8.90;99.90;;;;;;4421717;28;657377;-75
2023/01/01 04:46:38;;;;;;;11.10;5.90;;;8.90;99.90;;;;;;4402516;28;656220;-75
2023/01/01 04:49:25;;;;;;;10.13;5.47;;;8.90;99.90;;;;;;4409653;28;656560;-74
2023/01/01 04:52:12;;;;;;;13.87;6.30;;;9.00;99.90;;;;;;4417365;28;657215;-75
2023/01/01 04:55:00;;;;;;;15.03;6.50;;;9.00;99.90;;;;;;4416738;28;656854;-75
2023/01/01 04:57:47;;;;;;;12.33;6.77;;;9.10;99.90;;;;;;4408636;28;657258;-75
2023/01/01 05:00:35;;;;;;;11.13;5.67;;;9.10;99.90;;;;;;4401646;28;656865;-75
2023/01/01 05:03:24;;;;;;;11.57;5.83;;;9.20;99.90;;;;;;4411013;28;656478;-75
2023/01/01 05:06:12;;;;;;;12.80;5.87;;;9.40;99.90;;;;;;4384491;28;656689;-75
2023/01/01 05:09:00;;;;;;;13.27;6.00;;;9.50;99.90;;;;;;4425359;28;656673;-75
2023/01/01 05:11:47;;;;;;;9.70;5.33;;;9.80;99.90;;;;;;4390881;28;656468;-75
2023/01/01 05:14:34;;;;;;;11.07;6.10;;;10.10;99.90;;;;;;4410003;28;655347;-75
2023/01/01 05:17:21;;;;;;;12.77;6.30;;;10.40;99.90;;;;;;4394388;28;657578;-75
2023/01/01 05:20:11;;;;;;;12.77;6.30;;;10.30;99.90;;;;;;4416022;28;657555;-75
2023/01/01 05:22:58;;;;;;;11.80;6.23;;;10.40;99.90;;;;;;4395204;28;658147;-75
2023/01/01 05:25:45;;;;;;;11.67;6.77;;;10.40;99.90;;;;;;4396762;28;657752;-75
2023/01/01 05:28:32;;;;;;;20.17;8.03;;;10.30;99.90;;;;;;4424967;28;658009;-75
2023/01/01 05:31:22;;;;;;;14.77;7.20;;;10.20;99.90;;;;;;4414453;28;657598;-75
2023/01/01 05:34:09;;;;;;;17.43;7.70;;;10.00;99.90;;;;;;4423274;28;657040;-75
2023/01/01 05:36:58;;;;;;;16.20;7.13;;;9.90;99.90;;;;;;4397746;28;658581;-75
2023/01/01 05:39:46;;;;;;;12.60;6.57;;;9.80;99.90;;;;;;4394422;28;657814;-74
2023/01/01 05:42:34;;;;;;;16.73;7.43;;;9.70;99.90;;;;;;4420546;28;656906;-75
2023/01/01 05:45:22;;;;;;;13.70;7.10;;;9.80;99.90;;;;;;4402237;28;656562;-75
2023/01/01 05:48:09;;;;;;;13.40;6.30;;;9.90;99.90;;;;;;4424708;28;657786;-75
2023/01/01 05:51:02;;;;;;;15.27;7.77;;;9.80;99.90;;;;;;4400085;28;656734;-75
2023/01/01 05:53:51;;;;;;;15.67;7.93;;;9.60;99.90;;;;;;4401948;28;656519;-75
2023/01/01 05:56:38;;;;;;;16.77;7.10;;;9.70;99.90;;;;;;4396247;28;657117;-75
2023/01/01 05:59:25;;;;;;;17.57;7.70;;;9.80;99.90;;;;;;4403825;28;656902;-75
2023/01/01 06:02:12;;;;;;;17.33;8.40;;;9.80;99.90;;;;;;4426341;28;656405;-75
2023/01/01 06:05:00;;;;;;;15.30;8.00;;;9.90;99.90;;;;;;4413461;28;657181;-75
2023/01/01 06:07:47;;;;;;;19.90;8.50;;;10.10;99.90;;;;;;4428314;28;657201;-75
2023/01/01 06:10:37;;;;;;;17.00;8.10;;;10.00;99.90;;;;;;4411979;28;657674;-75
2023/01/01 06:13:24;;;;;;;17.10;8.00;;;10.30;99.90;;;;;;4419366;28;657169;-75
2023/01/01 06:16:11;;;;;;;18.03;8.40;;;10.30;99.90;;;;;;4406553;28;657937;-75
2023/01/01 06:18:58;;;;;;;21.10;8.68;;;10.40;99.90;;;;;;4425852;28;657219;-75
2023/01/01 06:21:46;;;;;;;18.13;8.20;;;10.40;99.90;;;;;;4410946;28;657394;-74
2023/01/01 06:24:33;;;;;;;14.47;7.50;;;10.50;99.90;;;;;;4441965;28;658239;-75
2023/01/01 06:27:22;;;;;;;15.40;8.33;;;10.50;99.90;;;;;;4418681;28;657558;-74
2023/01/01 06:30:10;;;;;;;18.57;7.97;;;10.60;99.90;;;;;;4444264;28;658363;-75
2023/01/01 06:32:57;;;;;;;16.10;7.33;;;10.40;99.90;;;;;;4421474;28;658210;-75
2023/01/01 06:35:44;;;;;;;14.70;7.27;;;10.40;99.90;;;;;;4442797;28;657586;-74
2023/01/01 06:38:32;;;;;;;15.63;7.77;;;10.50;99.90;;;;;;4419737;28;657568;-74
2023/01/01 06:41:20;;;;;;;15.57;7.63;;;10.50;99.90;;;;;;4440974;28;657849;-75
2023/01/01 06:44:09;;;;;;;14.33;7.43;;;10.50;99.90;;;;;;4416539;28;658078;-75
2023/01/01 06:46:56;;;;;;;13.13;6.80;;;10.40;99.90;;;;;;4414087;28;657697;-74
2023/01/01 06:49:43;;;;;;;12.67;7.10;;;10.50;99.90;;;;;;4439791;28;658225;-74
2023/01/01 06:52:30;;;;;;;13.30;7.25;;;10.50;99.90;;;;;;4420162;28;657781;-75
2023/01/01 06:55:18;;;;;;;15.37;7.43;;;10.40;99.90;;;;;;4434586;28;657929;-74
2023/01/01 06:58:08;;;;;;;14.40;7.20;;;10.50;99.90;;;;;;4432975;28;657310;-74
2023/01/01 07:01:03;;;;;;;17.10;7.40;;;10.40;99.90;;;;;;4420458;28;659437;-74
2023/01/01 07:03:51;;;;;;;13.93;6.73;;;10.50;99.90;;;;;;4421551;28;657687;-74
2023/01/01 07:06:38;;;;;;;14.57;7.07;;;10.40;99.90;;;;;;4436166;28;658628;-74
2023/01/01 07:09:26;;;;;;;13.47;6.40;;;10.30;99.90;;;;;;4422316;28;657720;-74
2023/01/01 07:12:13;;;;;;;13.27;6.73;;;10.50;99.90;;;;;;4439240;28;658785;-74
2023/01/01 07:15:00;;;;;;;13.40;6.87;;;10.50;99.90;;;;;;4423259;28;657931;-74
2023/01/01 07:17:49;;;;;;;11.47;6.50;;;10.50;99.90;;;;;;4440558;28;657501;-75
2023/01/01 07:20:36;;;;;;;13.77;7.00;;;10.60;99.90;;;;;;4418573;28;657803;-74
2023/01/01 07:23:23;;;;;;;11.80;6.80;;;10.60;99.90;;;;;;4432897;28;659244;-75
2023/01/01 07:26:11;;;;;;;12.20;6.13;;;10.60;99.90;;;;;;4404784;28;658038;-75
2023/01/01 07:28:58;;;;;;;14.53;6.67;;;10.60;99.90;;;;;;4434087;28;658210;-74
2023/01/01 07:31:45;;;;;;;12.60;6.40;;;10.60;99.90;;;;;;4419692;28;658159;-74
2023/01/01 07:34:34;;;;;;;14.90;6.70;;;10.60;99.90;;;;;;4418689;28;658732;-74
2023/01/01 07:37:24;;;;;;;12.17;6.17;;;10.60;99.90;;;;;;4404670;28;657823;-74
2023/01/01 07:40:12;;;;;;;11.17;5.97;;;10.70;99.90;;;;;;4402572;28;657496;-74
2023/01/01 07:42:59;;;;;;;10.70;6.30;;;10.80;99.90;;;;;;4411012;28;657227;-74
2023/01/01 07:45:46;;;;;;;11.80;6.37;;;10.80;99.90;;;;;;4412620;28;657771;-74
2023/01/01 07:48:34;;;;;;;11.50;6.40;;;10.80;99.90;;;;;;4432979;28;657630;-74
2023/01/01 07:51:22;;;;;;;12.80;6.63;;;10.80;99.90;;;;;;4402233;28;657511;-74
2023/01/01 07:54:10;;;;;;;16.13;6.90;;;10.80;99.90;;;;;;4430438;28;657113;-76
2023/01/01 07:56:57;;;;;;;12.60;6.77;;;10.80;99.90;;;;;;4407769;28;657906;-74
2023/01/01 07:59:45;;;;;;;15.00;7.33;;;10.90;99.90;;;;;;4423436;28;657452;-75
2023/01/01 08:02:33;;;;;;;14.07;6.80;;;10.80;99.90;;;;;;4395836;28;658415;-76
2023/01/01 08:05:20;;;;;;;12.30;6.67;;;10.80;99.90;;;;;;4387441;28;657547;-75
2023/01/01 08:08:11;;;;;;;15.17;7.13;;;10.60;99.90;;;;;;4358873;28;658865;-75
2023/01/01 08:11:00;;;;;;;15.87;6.97;;;10.70;99.90;;;;;;4397244;28;659117;-76
2023/01/01 08:13:47;;;;;;;17.03;7.00;;;10.70;99.90;;;;;;4390615;28;658527;-77
2023/01/01 08:16:35;;;;;;;14.77;7.00;;;10.70;99.90;;;;;;4417317;28;656900;-73
2023/01/01 08:19:22;;;;;;;15.07;7.60;;;10.70;99.90;;;;;;4395502;28;658546;-74
2023/01/01 08:22:10;;;;;;;14.53;7.57;;;10.70;99.90;;;;;;4418423;28;657849;-76
2023/01/01 08:24:59;;;;;;;15.43;7.73;;;10.80;99.90;;;;;;4394507;28;658167;-73
2023/01/01 08:27:46;;;;;;;17.50;7.97;;;10.80;99.90;;;;;;4407214;28;657109;-76
2023/01/01 08:30:33;;;;;;;15.57;8.07;;;10.80;99.90;;;;;;4430094;28;659770;-74
2023/01/01 08:33:21;;;;;;;19.48;7.90;;;10.80;99.90;;;;;;4404485;28;657556;-75
2023/01/01 08:36:10;;;;;;;18.70;8.87;;;10.80;99.90;;;;;;4426403;28;657612;-76
2023/01/01 08:38:57;;;;;;;17.50;8.63;;;10.80;99.90;;;;;;4411260;28;657543;-76
2023/01/01 08:41:47;;;;;;;14.90;8.20;;;10.80;99.90;;;;;;4418077;28;657663;-75
2023/01/01 08:44:34;;;;;;;18.87;8.53;;;10.80;99.90;;;;;;4423527;28;657099;-76
2023/01/01 08:47:22;;;;;;;18.90;8.87;;;10.80;99.90;;;;;;4404683;28;657443;-75
2023/01/01 08:50:09;;;;;;;16.27;8.50;;;10.90;99.90;;;;;;4439946;28;657426;-76
2023/01/01 08:52:58;;;;;;;20.83;9.27;;;10.90;99.90;;;;;;4416461;28;657268;-76
2023/01/01 08:55:45;;;;;;;16.53;8.50;;;10.90;99.90;;;;;;4431325;28;657994;-74
2023/01/01 08:58:35;;;;;;;18.97;9.40;;;10.80;99.90;;;;;;4436989;28;658143;-76
2023/01/01 09:01:25;;;;;;;18.80;8.57;;;10.80;99.90;;;;;;4399816;28;658205;-75
2023/01/01 09:04:12;;;;;;;19.10;9.27;;;10.80;99.90;;;;;;4401451;28;658503;-75
2023/01/01 09:06:59;;;;;;;20.17;9.00;;;10.80;99.90;;;;;;4422707;28;657159;-75
2023/01/01 09:09:46;;;;;;;18.97;8.83;;;10.80;99.90;;;;;;4395917;28;657538;-76
2023/01/01 09:12:34;;;;;;;16.30;8.60;;;10.80;99.90;;;;;;4415251;28;657963;-76
2023/01/01 09:15:23;;;;;;;17.03;9.33;;;10.70;99.90;;;;;;4411523;28;657437;-76
2023/01/01 09:18:10;;;;;;;16.77;9.17;;;10.70;99.90;;;;;;4421227;28;657576;-75
2023/01/01 09:20:57;;;;;;;17.73;9.07;;;10.80;99.90;;;;;;4433406;28;658204;-75
2023/01/01 09:23:45;;;;;;;19.23;9.13;;;10.80;99.90;;;;;;4422953;28;657943;-74
2023/01/01 09:26:32;;;;;;;20.77;8.50;;;11.10;99.90;;;;;;4440089;28;658154;-76
2023/01/01 09:29:20;;;;;;;17.13;8.17;;;12.00;99.90;;;;;;4437373;28;658050;-76
2023/01/01 09:32:09;;;;;;;17.00;7.50;;;12.90;99.90;;;;;;4432583;28;658655;-75
2023/01/01 09:34:56;;;;;;;13.53;7.97;;;14.10;99.90;;;;;;4416542;28;658317;-74
2023/01/01 09:37:43;;;;;;;14.43;8.00;;;14.90;99.90;;;;;;4413332;28;657702;-77
2023/01/01 09:40:33;;;;;;;13.47;7.97;;;14.90;99.90;;;;;;4417547;28;657326;-76
2023/01/01 09:43:26;;;;;;;16.13;7.63;;;15.20;95.20;;;;;;4421155;28;657460;-76
2023/01/01 09:46:13;;;;;;;14.13;7.83;;;16.20;94.00;;;;;;4418612;28;657769;-76
2023/01/01 09:49:05;;;;;;;14.23;8.15;;;16.80;91.70;;;;;;4423728;28;657762;-73
2023/01/01 09:51:54;;;;;;;14.35;8.10;;;18.10;82.00;;;;;;4391839;28;658320;-74
2023/01/01 09:54:43;;;;;;;13.18;7.22;;;18.20;72.70;;;;;;4405463;28;657742;-77
2023/01/01 09:57:31;;;;;;;13.63;8.70;;;19.10;71.40;;;;;;4415051;28;657735;-76
2023/01/01 10:00:19;;;;;;;15.13;7.80;;;19.60;68.00;;;;;;4433817;28;658373;-76
2023/01/01 10:03:15;;;;;;;13.95;8.27;;;20.20;61.60;;;;;;4419676;28;657932;-75
2023/01/01 10:06:10;;;;;;;15.05;8.23;;;18.80;64.30;;;;;;4416071;28;657214;-75
2023/01/01 10:09:03;;;;;;;15.02;8.63;;;18.30;66.00;;;;;;4409974;28;658669;-75
2023/01/01 10:11:53;;;;;;;17.83;9.07;;;18.30;66.20;;;;;;4392379;28;657548;-75
2023/01/01 10:14:41;;;;;;;16.15;9.73;;;19.10;65.40;;;;;;4422919;28;657749;-73
2023/01/01 10:17:31;;;;;;;13.55;7.45;;;19.90;67.60;;;;;;4442240;28;659169;-74
2023/01/01 10:20:21;;;;;;;12.00;6.95;;;19.60;62.90;;;;;;4419078;28;658009;-74
2023/01/01 10:23:12;;;;;;;11.23;7.18;;;20.40;60.40;;;;;;4418633;28;658272;-75
2023/01/01 10:25:59;;;;;;;12.32;7.28;;;21.00;61.30;;;;;;4418258;28;657358;-72
2023/01/01 10:28:51;;;;;;;14.63;7.75;;;21.00;58.40;;;;;;4422025;28;658090;-72
2023/01/01 10:31:39;;;;;;;12.55;7.68;;;21.30;56.60;;;;;;4413437;28;658701;-71
2023/01/01 10:34:27;;;;;;;15.63;7.68;;;21.10;55.30;;;;;;4417547;28;658307;-74
2023/01/01 10:37:16;;;;;;;16.83;8.45;;;20.30;55.90;;;;;;4431285;28;657723;-73
2023/01/01 10:40:06;;;;;;;14.27;8.57;;;18.10;63.40;;;;;;4442408;28;657954;-72
2023/01/01 10:42:54;;;;;;;15.18;8.20;;;19.60;61.20;;;;;;4413394;28;658134;-73
2023/01/01 10:45:44;;;;;;;11.75;7.03;;;20.50;56.70;;;;;;4411871;28;657614;-72
2023/01/01 10:48:32;;;;;;;15.40;8.43;;;20.90;55.90;;;;;;4419651;28;658304;-72
2023/01/01 10:51:23;;;;;;;13.05;8.20;;;21.20;54.50;;;;;;4434786;28;657792;-70
2023/01/01 10:54:29;;;;;;;16.17;8.85;;;21.20;54.00;;;;;;4391741;28;658195;-73
2023/01/01 10:57:20;;;;;;;15.27;8.85;;;21.30;54.50;;;;;;4388114;28;658279;-72
2023/01/01 11:00:19;;;;;;;16.33;8.57;;;21.50;53.40;;;;;;4414957;28;658385;-73
2023/01/01 11:03:14;;;;;;;14.35;9.23;;;20.70;54.70;;;;;;4410057;28;657939;-73
2023/01/01 11:06:18;;;;;;;14.50;8.20;;;20.70;53.20;;;;;;4391826;28;658895;-71
2023/01/01 11:09:06;;;;;;;11.30;7.60;;;21.20;53.90;;;;;;4413168;28;657133;-70
2023/01/01 11:11:55;;;;;;;11.82;7.38;;;21.40;53.30;;;;;;4437617;28;657464;-71
2023/01/01 11:14:48;;;;;;;12.75;6.85;;;21.40;53.00;;;;;;4414547;28;657529;-71
2023/01/01 11:17:36;;;;;;;13.45;7.45;;;21.20;54.00;;;;;;4393931;28;657914;-71
2023/01/01 11:20:31;;;;;;;14.27;7.60;;;21.30;53.30;;;;;;4434643;28;658583;-71
2023/01/01 11:23:20;;;;;;;11.32;6.70;;;20.60;53.70;;;;;;4410448;28;657496;-70
2023/01/01 11:26:25;;;;;;;12.55;7.38;;;20.20;54.90;;;;;;4417572;28;657947;-71
2023/01/01 11:29:25;;;;;;;12.27;7.10;;;19.80;55.30;;;;;;4392052;28;657705;-70
2023/01/01 11:32:16;;;;;;;10.97;6.90;;;19.20;56.10;;;;;;4409891;28;658332;-71
2023/01/01 11:35:05;;;;;;;11.63;7.03;;;18.80;58.20;;;;;;4403293;28;658287;-70
2023/01/01 11:37:53;;;;;;;12.48;7.22;;;18.80;59.90;;;;;;4412616;28;658345;-71
2023/01/01 11:40:46;;;;;;;12.15;6.70;;;19.40;57.60;;;;;;4409927;28;658366;-70
2023/01/01 11:43:37;;;;;;;12.00;7.15;;;19.60;56.60;;;;;;4410202;28;657680;-70
2023/01/01 11:46:25;;;;;;;13.57;7.03;;;19.30;58.00;;;;;;4409128;28;657832;-70
2023/01/01 11:49:14;;;;;;;14.02;7.25;;;20.30;56.60;;;;;;4432203;28;658161;-69
2023/01/01 11:52:07;;;;;;;13.75;7.35;;;20.70;55.70;;;;;;4408967;28;657768;-71
2023/01/01 11:54:54;;;;;;;13.40;7.55;;;20.70;54.70;;;;;;4406591;28;657931;-69
2023/01/01 11:57:44;;;;;;;10.68;6.32;;;20.60;54.70;;;;;;4414509;28;658780;-70
2023/01/01 12:00:34;;;;;;;12.60;6.68;;;20.60;54.00;;;;;;4406652;28;658054;-70
2023/01/01 12:03:24;;;;;;;11.18;6.47;;;20.90;54.30;;;;;;4417002;28;657819;-70
2023/01/01 12:06:19;;;;;;;10.35;6.38;;;20.40;55.10;;;;;;4414253;28;657566;-70
2023/01/01 12:09:09;;;;;;;9.43;6.00;;;20.20;54.90;;;;;;4419956;28;658317;-70
2023/01/01 12:12:00;;;;;;;12.73;6.70;;;19.70;55.80;;;;;;4413112;28;656839;-70
2023/01/01 12:14:50;;;;;;;12.43;6.95;;;19.90;55.60;;;;;;4407378;28;658343;-69
2023/01/01 12:17:38;;;;;;;14.68;7.60;;;19.30;54.90;;;;;;4414930;28;658859;-70
2023/01/01 12:20:26;;;;;;;12.77;7.90;;;17.80;60.00;;;;;;4416958;28;658086;-70
2023/01/01 12:23:15;;;;;;;15.90;8.57;;;18.10;59.70;;;;;;4436638;28;658491;-71
2023/01/01 12:26:06;;;;;;;15.90;9.13;;;18.10;59.90;;;;;;4414797;28;658386;-71
2023/01/01 12:29:16;;;;;;;19.85;9.48;;;19.30;59.00;;;;;;4413532;28;657883;-71
2023/01/01 12:32:07;;;;;;;16.98;8.93;;;19.80;57.40;;;;;;4391016;28;657662;-71
2023/01/01 12:34:56;;;;;;;19.77;9.67;;;19.30;57.50;;;;;;4377266;28;657687;-71
2023/01/01 12:37:48;;;;;;;17.10;9.67;;;18.10;59.60;;;;;;4381153;28;657979;-69
2023/01/01 12:40:39;;;;;;;20.67;10.27;;;18.60;62.70;;;;;;4397344;28;657420;-71
2023/01/01 12:43:30;;;;;;;19.83;10.95;;;19.20;59.20;;;;;;4398372;28;658473;-72
2023/01/01 12:46:35;;;;;;;20.40;10.02;;;19.50;59.80;;;;;;4387879;28;659434;-69
2023/01/01 12:49:33;;;;;;;21.60;9.98;;;19.50;58.00;;;;;;4373926;28;658771;-71
2023/01/01 12:52:28;;;;;;;15.75;9.13;;;19.70;57.50;;;;;;4397185;28;657808;-70
2023/01/01 12:55:50;;;;;;;14.52;8.52;;;19.60;58.90;;;;;;4401600;28;657764;-71
2023/01/01 12:58:38;;;;;;;18.17;9.15;;;20.40;56.30;;;;;;4373521;28;658708;-70
2023/01/01 13:01:27;;;;;;;17.90;9.60;;;20.20;56.70;;;;;;4401149;28;658055;-70
2023/01/01 13:04:16;;;;;;;14.17;8.47;;;20.10;57.40;;;;;;4419407;28;657490;-70
2023/01/01 13:07:04;;;;;;;14.80;8.17;;;18.90;58.70;;;;;;4391410;28;658536;-70
2023/01/01 13:09:52;;;;;;;16.83;8.70;;;18.70;60.00;;;;;;4397318;28;657586;-70
2023/01/01 13:12:41;;;;;;;17.97;9.13;;;18.30;63.00;;;;;;4423783;28;657357;-70
2023/01/01 13:15:48;;;;;;;18.60;8.30;;;18.50;62.00;;;;;;4393450;28;657533;-69
2023/01/01 13:18:35;;;;;;;15.73;7.87;;;18.10;60.80;;;;;;4393743;28;657818;-70
2023/01/01 13:21:24;;;;;;;16.27;8.97;;;18.70;61.70;;;;;;4432456;28;657803;-70
2023/01/01 13:24:19;;;;;;;17.03;7.80;;;17.90;65.70;;;;;;4413950;28;657473;-69
2023/01/01 13:27:07;;;;;;;15.40;7.73;;;18.10;63.70;;;;;;4401336;28;657920;-70
2023/01/01 13:29:56;;;;;;;13.43;7.30;;;18.00;63.50;;;;;;4447329;28;657609;-69
2023/01/01 13:33:10;;;;;;;15.47;7.20;;;18.10;62.40;;;;;;4418839;28;658411;-69
2023/01/01 13:36:30;;;;;;;15.27;7.03;;;18.00;63.90;;;;;;4397466;28;657434;-71
2023/01/01 13:39:53;;;;;;;11.73;6.87;;;18.10;62.60;;;;;;4409158;28;657432;-71
2023/01/01 13:42:42;;;;;;;9.07;5.40;;;18.10;63.60;;;;;;4397347;28;658214;-71
2023/01/01 13:45:34;;;;;;;10.23;5.53;;;18.00;63.70;;;;;;4453002;28;656957;-72
2023/01/01 13:48:41;;;;;;;10.83;5.70;;;17.70;65.10;;;;;;4420874;28;657901;-72
2023/01/01 13:52:05;;;;;;;13.03;5.67;;;17.90;64.20;;;;;;4415677;28;657837;-73
2023/01/01 13:55:49;;;;;;;9.07;5.27;;;18.10;63.70;;;;;;4397303;28;657708;-71
2023/01/01 13:59:13;;;;;;;9.40;4.97;;;18.20;63.00;;;;;;4365119;28;656640;-70
2023/01/01 14:02:15;;;;;;;10.27;4.83;;;17.50;62.70;;;;;;4359426;28;656949;-72
2023/01/01 14:05:03;;;;;;;11.73;5.20;;;17.40;64.60;;;;;;4390621;28;657795;-71
2023/01/01 14:07:52;;;;;;;9.47;5.00;;;16.50;66.90;;;;;;4424304;28;658137;-71
2023/01/01 14:10:39;;;;;;;11.37;5.10;;;16.30;68.80;;;;;;4443349;28;657062;-70
2023/01/01 14:13:28;;;;;;;8.83;5.13;;;16.00;70.00;;;;;;4417548;28;657642;-71
2023/01/01 14:16:15;;;;;;;9.93;5.03;;;15.60;73.00;;;;;;4434435;28;656509;-72
2023/01/01 14:19:04;;;;;;;8.47;4.20;;;15.30;75.10;;;;;;4446822;28;657337;-71
2023/01/01 14:21:51;;;;;;;10.67;5.23;;;15.00;77.70;;;;;;4424186;28;656627;-71
2023/01/01 14:24:40;;;;;;;9.70;4.85;;;14.80;80.00;;;;;;4446837;28;658049;-70
2023/01/01 14:27:27;;;;;;;9.83;4.67;;;14.60;82.90;;;;;;4424621;28;657540;-70